Saint Michael, Minnesota
Current Conditions -  °F | °C
As of 10:35 AM on Monday 26 Jan 2015 (Local Time) from KCFE Reporting Station
Clear Clear  
Wind Chill: 29°   Ceiling: Unl
Heat Index: 37°   Visibility: 10mi
Dew Point: 31°   Wind: 10mph
Humidity: 80%   Direction: 270°W
Pressure: 29.72"   Gusts: NA
Location:  45.21°N, 93.66°W
Report Text: KCFE 261635Z AUTO 27009KT 10SM CLR 03/00 A2972 RMK AO2 T00261005
Loading
Personal Weather Stations






























Interactive Weather Map New forecast layout! Learn more

10-Day Weather Forecast

Advertisements
Track Severe Weather on mobile